Erie International Tom Ridge Field
KERI : now visible

Airfield :











YOU CAN JOIN US ON...

 
LOGIN :

Register | Disclaimer

   EN    FR    IT 

 









Legend :    VFR   Marginal VFR   IFR   Intensive IFR   Very Intensive IFR
Visi :
Ceiling :
>= 8 km
>= 3000ft
5 to 8 km
1000 to 3000 ft
1500m to 5 km
500 to 1000 ft
800 to 1500m
200 to 500 ft
< 800m
< 200 ft
Symbols :   Thunderstorms  Fog  Heavy snow  Heavy precipitations  Wind > 20 kt






- Airport Elevation : 733 ft
- IATA code : ERI


KERI - Erie International Tom Ridge Field

CURRENT METAR :
  • 280451Z AUTO 15012KT 10SM CLR 23/16 A3003 RMK AO2 SLP163 T02280156 403060217

EXPIRED METARs :
  • 280351Z AUTO 15009KT 10SM CLR 23/15 A3003 RMK AO2 SLP163 T02330150
  • 280251Z AUTO 15012KT 10SM CLR 24/15 A3003 RMK AO2 SLP164 T02390150 50006

TAF KERI
Valid from the 28 at 06:00 until the 29 at 06:00 UTC


280520Z 2806/2906 16012KT P6SM -SHRA SCT090 BKN170
FM281100 15008KT P6SM -RA SCT010 OVC040
FM281400 15008KT 4SM RA SCT002 OVC005
FM281700 VRB05KT P6SM -SHRA SCT005 OVC015
FM281900 20008KT P6SM SCT009 BKN035
KZOB FIR / North America



MET'MAP, your aeronautical weather chart ! - Copyright ORBIFLY December 2007 - Disclaimer

ORBIFLY MET'MAP TEAM :

Programming & Development : Alexandra Zaïnal
Concept & original design : Baudouin d'Aumeries
Assistance for programming : Marc-Olivier Méhu
Technical & hardware support : Manuel Goepfert

Contact : metmap@orbifly.com




SOURCES & CREDITS :

   NOAA       Earth
Advisory